createdAt,value
2019-01-23T00:04:17.121Z,100243.81
2019-01-23T00:09:21.605Z,100234.53
2019-01-23T00:14:25.778Z,100226.27
2019-01-23T00:19:29.854Z,100225.42
2019-01-23T00:24:34.982Z,100217.38
2019-01-23T00:29:39.194Z,100210.48
2019-01-23T00:34:43.529Z,100214.27
2019-01-23T00:39:47.718Z,100221.21
2019-01-23T00:44:51.809Z,100218.28
2019-01-23T00:49:56.224Z,100218.61
2019-01-23T00:55:00.444Z,100210.34
2019-01-23T01:00:08.035Z,100204.96
2019-01-23T01:05:12.627Z,100195.75
2019-01-23T01:10:17.295Z,100192.84
2019-01-23T01:15:21.410Z,100190.31
2019-01-23T01:20:25.714Z,100196.08
2019-01-23T01:25:30.218Z,100189.39
2019-01-23T01:30:34.287Z,100185.87
2019-01-23T01:35:38.373Z,100186.45
2019-01-23T01:40:42.435Z,100185.98
2019-01-23T01:45:46.477Z,100173.98
2019-01-23T01:50:50.576Z,100179.73
2019-01-23T01:55:54.656Z,100170.85
2019-01-23T02:00:58.770Z,100166.83
2019-01-23T02:06:03.396Z,100162.16
2019-01-23T02:11:07.801Z,100160.34
2019-01-23T02:16:11.900Z,100156.00
2019-01-23T02:21:15.971Z,100152.48
2019-01-23T02:26:20.046Z,100148.48
2019-01-23T02:31:24.584Z,100152.03
2019-01-23T02:36:28.663Z,100150.50
2019-01-23T02:41:32.784Z,100154.34
2019-01-23T02:46:36.870Z,100146.98
2019-01-23T02:51:40.995Z,100143.92
2019-01-23T02:56:45.196Z,100129.77
2019-01-23T03:01:49.336Z,100134.95
2019-01-23T03:06:53.385Z,100129.68
2019-01-23T03:11:57.483Z,100117.56
2019-01-23T03:17:01.566Z,100113.52
2019-01-23T03:22:05.645Z,100119.13
2019-01-23T03:27:09.678Z,100112.95
2019-01-23T03:32:13.809Z,100120.06
2019-01-23T03:37:17.980Z,100124.59
2019-01-23T03:42:22.316Z,100132.48
2019-01-23T03:47:26.363Z,100128.27
2019-01-23T03:52:30.452Z,100128.83
2019-01-23T03:57:34.500Z,100131.48
2019-01-23T04:02:38.587Z,100137.21
2019-01-23T04:07:42.961Z,100136.16
2019-01-23T04:12:48.808Z,100137.46
2019-01-23T04:17:52.870Z,100134.92
2019-01-23T04:22:57.517Z,100130.95
2019-01-23T04:28:01.648Z,100126.38
2019-01-23T04:33:06.026Z,100118.35
2019-01-23T04:38:10.051Z,100108.32
2019-01-23T04:43:14.133Z,100112.68
2019-01-23T04:48:18.487Z,100113.53
2019-01-23T04:53:22.797Z,100110.09
2019-01-23T04:58:27.058Z,100111.48
2019-01-23T05:03:31.121Z,100105.59
2019-01-23T05:08:35.132Z,100103.45
2019-01-23T05:13:39.172Z,100099.84
2019-01-23T05:18:43.209Z,100090.19
2019-01-23T05:23:47.260Z,100087.36
2019-01-23T05:28:51.325Z,100089.21
2019-01-23T05:34:01.967Z,100092.66
2019-01-23T05:39:07.885Z,100090.28
2019-01-23T05:44:11.926Z,100094.41
2019-01-23T05:49:16.222Z,100097.02
2019-01-23T05:54:20.337Z,100101.36
2019-01-23T05:59:24.459Z,100103.85
2019-01-23T06:04:28.505Z,100095.22
2019-01-23T06:09:32.527Z,100099.61
2019-01-23T06:14:36.954Z,100094.94
2019-01-23T06:19:41.002Z,100104.88
2019-01-23T06:24:45.539Z,100108.78
2019-01-23T06:29:49.718Z,100104.36
2019-01-23T06:34:59.724Z,100106.41
2019-01-23T06:40:05.776Z,100107.19
2019-01-23T06:45:11.444Z,100110.02
2019-01-23T06:50:17.233Z,100113.83
2019-01-23T06:55:21.811Z,100108.49
2019-01-23T07:00:26.509Z,100115.06
2019-01-23T07:05:30.864Z,100114.77
2019-01-23T07:10:34.998Z,100117.44
2019-01-23T07:15:39.606Z,100117.05
2019-01-23T07:20:43.942Z,100115.15
2019-01-23T07:25:48.607Z,100108.41
2019-01-23T07:30:52.625Z,100107.03
2019-01-23T07:35:56.660Z,100108.16
2019-01-23T07:41:00.789Z,100112.30
2019-01-23T07:46:05.102Z,100114.28
2019-01-23T07:51:09.129Z,100121.48
2019-01-23T07:56:13.424Z,100124.53
2019-01-23T08:01:17.474Z,100115.80
2019-01-23T08:06:21.541Z,100116.00
2019-01-23T08:11:25.585Z,100115.41
2019-01-23T08:16:29.898Z,100117.25
2019-01-23T08:21:34.249Z,100110.25
2019-01-23T08:26:40.083Z,100101.27
2019-01-23T08:31:44.807Z,100102.28
2019-01-23T08:36:48.891Z,100103.39
2019-01-23T08:41:53.061Z,100104.97
2019-01-23T08:46:57.498Z,100096.23
2019-01-23T08:52:01.949Z,100103.01
2019-01-23T08:57:06.186Z,100103.39
2019-01-23T09:02:10.489Z,100108.63
2019-01-23T09:07:14.692Z,100101.91
2019-01-23T09:12:18.915Z,100101.15
2019-01-23T09:17:23.235Z,100098.59
2019-01-23T09:22:27.726Z,100102.72
2019-01-23T09:27:32.045Z,100093.47
2019-01-23T09:33:08.237Z,100099.27
2019-01-23T09:38:35.812Z,100099.56
2019-01-23T09:43:57.896Z,100088.98
2019-01-23T09:49:41.791Z,100086.02
2019-01-23T09:54:47.297Z,100082.98
2019-01-23T09:59:52.720Z,100089.20
2019-01-23T10:04:57.218Z,100090.04
2019-01-23T10:10:01.620Z,100081.83
2019-01-23T10:15:09.883Z,100092.24
2019-01-23T10:20:14.002Z,100087.66
2019-01-23T10:25:18.013Z,100080.34
2019-01-23T10:30:22.214Z,100075.89
2019-01-23T10:35:26.233Z,100078.63
2019-01-23T10:40:30.225Z,100081.69
2019-01-23T10:45:34.226Z,100083.75
2019-01-23T10:50:38.818Z,100088.30
2019-01-23T10:55:42.820Z,100086.90
2019-01-23T11:00:46.830Z,100084.72
2019-01-23T11:05:50.868Z,100079.62
2019-01-23T11:10:55.355Z,100083.56
2019-01-23T11:15:59.907Z,100069.77
2019-01-23T11:21:04.491Z,100066.14
2019-01-23T11:26:08.849Z,100060.22
2019-01-23T11:31:12.907Z,100069.14
2019-01-23T11:36:17.369Z,100058.92
2019-01-23T11:41:21.418Z,100063.84
2019-01-23T11:46:25.454Z,100067.55
2019-01-23T11:51:29.489Z,100069.37
2019-01-23T11:56:33.520Z,100071.28
2019-01-23T12:01:37.738Z,100069.58
2019-01-23T12:06:41.774Z,100070.52
2019-01-23T12:11:46.326Z,100076.17
2019-01-23T12:16:50.363Z,100080.94
2019-01-23T12:21:54.475Z,100085.52
2019-01-23T12:26:58.483Z,100090.53
2019-01-23T12:32:02.534Z,100080.91
2019-01-23T12:37:07.663Z,100087.60
2019-01-23T12:42:11.707Z,100077.66
2019-01-23T12:47:15.797Z,100083.23
2019-01-23T12:52:19.842Z,100080.83
2019-01-23T12:57:23.854Z,100084.31
2019-01-23T13:02:27.884Z,100087.48
2019-01-23T13:07:33.452Z,100089.62
2019-01-23T13:12:37.717Z,100076.97
2019-01-23T13:17:41.758Z,100078.66
2019-01-23T13:22:45.804Z,100080.91
2019-01-23T13:27:49.983Z,100094.31
2019-01-23T13:32:54.203Z,100093.05
2019-01-23T13:37:58.211Z,100088.97
2019-01-23T13:43:02.890Z,100095.77
2019-01-23T13:48:08.424Z,100103.21
2019-01-23T13:53:12.565Z,100114.91
2019-01-23T13:58:16.603Z,100121.24
2019-01-23T14:03:20.682Z,100125.92
2019-01-23T14:08:24.877Z,100128.13
2019-01-23T14:13:28.937Z,100131.05
2019-01-23T14:18:32.955Z,100141.44
2019-01-23T14:23:37.020Z,100149.84
2019-01-23T14:28:41.020Z,100155.03
2019-01-23T14:33:45.045Z,100158.05
2019-01-23T14:38:49.105Z,100158.59
2019-01-23T14:43:53.192Z,100175.51
2019-01-23T14:48:57.232Z,100183.11
2019-01-23T14:54:01.248Z,100190.48
2019-01-23T14:59:05.385Z,100190.59
2019-01-23T15:04:09.463Z,100202.22
2019-01-23T15:09:13.455Z,100204.31
2019-01-23T15:14:17.504Z,100213.05
2019-01-23T15:19:21.532Z,100209.38
2019-01-23T15:24:26.591Z,100215.95
2019-01-23T15:29:30.646Z,100215.20
2019-01-23T15:34:34.681Z,100215.42
2019-01-23T15:39:38.736Z,100218.23
2019-01-23T15:44:42.800Z,100213.81
2019-01-23T15:49:46.795Z,100221.91
2019-01-23T15:54:51.323Z,100228.88
2019-01-23T15:59:55.537Z,100231.02
2019-01-23T16:04:59.675Z,100234.86
2019-01-23T16:10:04.453Z,100235.24
2019-01-23T16:15:09.221Z,100234.79
2019-01-23T16:20:13.515Z,100242.84
2019-01-23T16:25:18.216Z,100241.15
2019-01-23T16:30:28.107Z,100246.27
2019-01-23T16:35:38.548Z,100265.13
2019-01-23T16:40:38.100Z,100267.36
2019-01-23T16:45:42.116Z,100269.52
2019-01-23T16:50:46.146Z,100265.67
2019-01-23T16:55:50.184Z,100270.75
2019-01-23T17:00:54.443Z,100268.91
2019-01-23T17:05:58.496Z,100280.78
2019-01-23T17:11:02.500Z,100276.64
2019-01-23T17:16:06.897Z,100281.45
2019-01-23T17:21:10.938Z,100281.61
2019-01-23T17:26:14.978Z,100286.66
2019-01-23T17:31:19.069Z,100294.34
2019-01-23T17:36:23.102Z,100287.27
2019-01-23T17:41:27.177Z,100294.78
2019-01-23T17:46:31.243Z,100301.61
2019-01-23T17:51:35.277Z,100299.22
2019-01-23T17:56:39.387Z,100303.12
2019-01-23T18:01:43.403Z,100311.73
2019-01-23T18:06:47.445Z,100308.13
2019-01-23T18:11:51.507Z,100311.88
2019-01-23T18:16:55.560Z,100313.58
2019-01-23T18:22:00.087Z,100322.56
2019-01-23T18:27:04.737Z,100329.30
2019-01-23T18:32:09.692Z,100326.14
2019-01-23T18:37:37.383Z,100334.18
2019-01-23T18:43:16.209Z,100349.92
2019-01-23T18:48:58.867Z,100350.69
2019-01-23T18:54:03.133Z,100364.05
2019-01-23T18:59:07.251Z,100367.56
2019-01-23T19:04:11.354Z,100370.47
2019-01-23T19:09:15.535Z,100377.83
2019-01-23T19:14:24.384Z,100379.20
2019-01-23T19:19:36.505Z,100387.52
2019-01-23T19:24:40.884Z,100393.47
2019-01-23T19:29:45.069Z,100395.92
2019-01-23T19:34:49.475Z,100404.74
2019-01-23T19:39:53.980Z,100403.14
2019-01-23T19:44:58.122Z,100406.34
2019-01-23T19:50:02.269Z,100407.85
2019-01-23T19:55:07.385Z,100409.16
2019-01-23T20:00:22.003Z,100410.63
2019-01-23T20:05:30.074Z,100414.77
2019-01-23T20:10:34.207Z,100421.27
2019-01-23T20:15:38.360Z,100420.81
2019-01-23T20:20:42.443Z,100432.47
2019-01-23T20:25:46.628Z,100427.77
2019-01-23T20:30:50.684Z,100432.36
2019-01-23T20:35:54.920Z,100450.02
2019-01-23T20:40:59.034Z,100444.91
2019-01-23T20:46:03.121Z,100445.39
2019-01-23T20:51:07.244Z,100444.09
2019-01-23T20:56:11.692Z,100450.23
2019-01-23T21:01:15.894Z,100446.67
2019-01-23T21:06:20.361Z,100449.53
2019-01-23T21:11:24.424Z,100447.37
2019-01-23T21:16:28.507Z,100447.98
2019-01-23T21:21:34.549Z,100448.09
2019-01-23T21:26:38.867Z,100446.29
2019-01-23T21:31:42.916Z,100455.99
2019-01-23T21:36:47.006Z,100450.17
2019-01-23T21:41:51.452Z,100457.16
2019-01-23T21:46:55.449Z,100455.67
2019-01-23T21:51:59.487Z,100463.05
2019-01-23T21:57:03.666Z,100462.31
2019-01-23T22:02:07.687Z,100461.25
2019-01-23T22:07:11.708Z,100462.70
2019-01-23T22:12:15.938Z,100471.45
2019-01-23T22:17:20.220Z,100468.66
2019-01-23T22:22:24.255Z,100466.26
2019-01-23T22:27:28.332Z,100472.42
2019-01-23T22:32:32.354Z,100475.31
2019-01-23T22:37:36.462Z,100493.54
2019-01-23T22:42:40.704Z,100497.03
2019-01-23T22:47:45.039Z,100499.39
2019-01-23T22:52:50.781Z,100498.02
2019-01-23T22:57:58.994Z,100499.06
2019-01-23T23:03:08.353Z,100504.95
2019-01-23T23:08:16.758Z,100504.70
2019-01-23T23:13:23.585Z,100503.52
2019-01-23T23:18:27.872Z,100504.19
2019-01-23T23:23:31.970Z,100513.91
2019-01-23T23:28:36.317Z,100515.11
2019-01-23T23:33:43.467Z,100524.01
2019-01-23T23:38:51.116Z,100514.96
2019-01-23T23:43:58.415Z,100525.24
2019-01-23T23:49:05.616Z,100527.78
2019-01-23T23:54:11.471Z,100529.68
2019-01-23T23:59:19.492Z,100528.19
